Holland, Nebraska
Current Conditions -  °F | °C
As of 9:54 AM on Friday 19 Dec 2014 (Local Time) from KLNK Reporting Station
Haze Haze  
Wind Chill: 24°   Ceiling: 1600
Heat Index: 32°   Visibility: 5mi
Dew Point: 28°   Wind: 9mph
Humidity: 85%   Direction: 170°S
Pressure: 30.24"   Gusts: NA
Location:  40.6166°N, 96.617°W
Report Text: KLNK 191554Z 17008KT 5SM BR OVC016 00/M02 A3024 RMK AO2 SLP251 T00001022
Loading
Personal Weather Stations






























Interactive Weather Map New forecast layout! Learn more

10-Day Weather Forecast

Advertisements
Track Severe Weather on mobile